Time;durP1;ratioP1;P1;durP2;ratioP2;P2;SDS_P1;SDS_P2;PMS_P1;PMS_P2;Temp;Humidity;BMP_temperature;BMP_pressure;BME280_temperature;BME280_humidity;BME280_pressure;Samples;Min_cycle;Max_cycle;Signal;HPM_P1;HPM_P2
2023/09/19 00:02:12;;;;;;;;;2.00;0.00;;;;;;;;5136645;27;9835;-74
2023/09/19 00:04:39;;;;;;;;;0.00;0.00;;;;;;;;5132838;27;9867;-75
2023/09/19 00:07:04;;;;;;;;;2.50;0.00;;;;;;;;5130055;27;8809;-75
2023/09/19 00:09:30;;;;;;;;;0.00;0.00;;;;;;;;5123726;27;9870;-75
2023/09/19 00:11:55;;;;;;;;;1.00;0.00;;;;;;;;5125116;28;8831;-74
2023/09/19 00:14:23;;;;;;;;;0.00;0.00;;;;;;;;5125503;28;8821;-74
2023/09/19 00:16:49;;;;;;;;;0.50;0.00;;;;;;;;5125631;27;8733;-75
2023/09/19 00:19:16;;;;;;;;;1.00;1.00;;;;;;;;5125738;27;9707;-74
2023/09/19 00:21:41;;;;;;;;;1.00;1.00;;;;;;;;5138515;27;8745;-75
2023/09/19 00:24:08;;;;;;;;;1.50;0.50;;;;;;;;5124871;27;9791;-74
2023/09/19 00:26:34;;;;;;;;;2.00;0.75;;;;;;;;5122351;28;8792;-75
2023/09/19 00:29:04;;;;;;;;;0.00;0.00;;;;;;;;5125357;27;10983;-75
2023/09/19 00:31:30;;;;;;;;;1.50;0.00;;;;;;;;5125404;28;8800;-75
2023/09/19 00:33:56;;;;;;;;;0.50;0.00;;;;;;;;5125161;28;9759;-75
2023/09/19 00:36:23;;;;;;;;;0.00;0.00;;;;;;;;5126280;27;8764;-74
2023/09/19 00:38:48;;;;;;;;;1.00;1.00;;;;;;;;5144842;27;9641;-74
2023/09/19 00:41:13;;;;;;;;;0.00;0.00;;;;;;;;5145911;27;9841;-75
2023/09/19 00:43:40;;;;;;;;;4.25;0.75;;;;;;;;5138986;27;8872;-75
2023/09/19 00:46:06;;;;;;;;;1.50;0.00;;;;;;;;5124988;27;8732;-75
2023/09/19 00:48:31;;;;;;;;;0.00;0.00;;;;;;;;5125206;28;9552;-75
2023/09/19 00:50:59;;;;;;;;;1.00;0.00;;;;;;;;5124646;27;10014;-74
2023/09/19 00:53:27;;;;;;;;;1.00;0.00;;;;;;;;5124678;27;9777;-75
2023/09/19 00:55:52;;;;;;;;;5.25;1.00;;;;;;;;5118088;27;9831;-74
2023/09/19 00:58:18;;;;;;;;;1.50;0.00;;;;;;;;5135986;27;9861;-75
2023/09/19 01:00:44;;;;;;;;;1.00;0.00;;;;;;;;5144183;27;10105;-75
2023/09/19 01:03:10;;;;;;;;;2.00;1.00;;;;;;;;5144935;27;9674;-75
2023/09/19 01:05:35;;;;;;;;;0.00;0.00;;;;;;;;5145597;27;8958;-75
2023/09/19 01:08:01;;;;;;;;;0.75;0.75;;;;;;;;5144751;27;8796;-74
2023/09/19 01:10:26;;;;;;;;;0.25;0.00;;;;;;;;5145111;27;8780;-74
2023/09/19 01:13:06;;;;;;;;;0.00;0.00;;;;;;;;5144185;27;8796;-74
2023/09/19 01:15:35;;;;;;;;;2.50;0.00;;;;;;;;5136587;27;8773;-74
2023/09/19 01:18:09;;;;;;;;;0.00;0.00;;;;;;;;5123416;27;9878;-74
2023/09/19 01:20:37;;;;;;;;;1.00;0.00;;;;;;;;5131041;27;9884;-75
2023/09/19 01:23:23;;;;;;;;;0.25;0.25;;;;;;;;5142607;27;10817;-75
2023/09/19 01:26:01;;;;;;;;;0.00;0.00;;;;;;;;5143596;27;9836;-74
2023/09/19 01:28:38;;;;;;;;;0.00;0.00;;;;;;;;5145143;27;9883;-75
2023/09/19 01:31:03;;;;;;;;;0.00;0.00;;;;;;;;5137198;27;10004;-75
2023/09/19 01:33:51;;;;;;;;;3.00;0.00;;;;;;;;5122714;28;9940;-75
2023/09/19 01:36:16;;;;;;;;;0.00;0.00;;;;;;;;5124196;27;8788;-75
2023/09/19 01:38:41;;;;;;;;;0.00;0.00;;;;;;;;5123739;27;9868;-74
2023/09/19 01:41:12;;;;;;;;;0.75;0.00;;;;;;;;5135296;27;8805;-75
2023/09/19 01:43:40;;;;;;;;;0.00;0.00;;;;;;;;5144887;27;8788;-75
2023/09/19 01:46:21;;;;;;;;;0.00;0.00;;;;;;;;5137441;27;9718;-75
2023/09/19 01:48:57;;;;;;;;;1.00;1.00;;;;;;;;5121459;27;9818;-75
2023/09/19 01:51:49;;;;;;;;;0.75;0.75;;;;;;;;5142897;27;10044;-75
2023/09/19 01:54:18;;;;;;;;;1.00;1.00;;;;;;;;5118356;27;9910;-74
2023/09/19 01:56:51;;;;;;;;;0.00;0.00;;;;;;;;5110861;28;9858;-74
2023/09/19 01:59:18;;;;;;;;;2.00;0.50;;;;;;;;5123037;27;9828;-75
2023/09/19 02:01:45;;;;;;;;;2.75;0.00;;;;;;;;5123152;28;10076;-75
2023/09/19 02:04:10;;;;;;;;;1.00;0.00;;;;;;;;5123562;28;9837;-75
2023/09/19 02:06:39;;;;;;;;;1.00;0.00;;;;;;;;5123152;28;9853;-75
2023/09/19 02:09:05;;;;;;;;;2.75;0.00;;;;;;;;5122369;28;8866;-75
2023/09/19 02:11:30;;;;;;;;;1.00;0.00;;;;;;;;5123554;28;10018;-74
2023/09/19 02:13:56;;;;;;;;;1.00;0.00;;;;;;;;5123590;27;8786;-76
2023/09/19 02:16:21;;;;;;;;;0.25;0.00;;;;;;;;5132009;27;8843;-75
2023/09/19 02:18:49;;;;;;;;;3.25;1.00;;;;;;;;5126882;27;9042;-74
2023/09/19 02:21:15;;;;;;;;;0.50;0.00;;;;;;;;5135434;27;8739;-74
2023/09/19 02:23:40;;;;;;;;;0.00;0.00;;;;;;;;5121837;28;9860;-74
2023/09/19 02:26:06;;;;;;;;;1.00;1.00;;;;;;;;5122305;27;8942;-73
2023/09/19 02:28:31;;;;;;;;;0.00;0.00;;;;;;;;5122918;27;8779;-74
2023/09/19 02:30:57;;;;;;;;;0.00;0.00;;;;;;;;5127995;27;10111;-75
2023/09/19 02:33:22;;;;;;;;;1.00;1.00;;;;;;;;5143688;27;8784;-75
2023/09/19 02:35:48;;;;;;;;;4.00;0.00;;;;;;;;5142029;27;8788;-74
2023/09/19 02:38:14;;;;;;;;;0.50;0.50;;;;;;;;5143843;27;8865;-77
2023/09/19 02:40:40;;;;;;;;;3.00;1.25;;;;;;;;5126666;27;10161;-75
2023/09/19 02:43:05;;;;;;;;;2.25;0.00;;;;;;;;5143756;27;10002;-73
2023/09/19 02:45:32;;;;;;;;;2.50;0.00;;;;;;;;5143787;27;8840;-74
2023/09/19 02:47:58;;;;;;;;;2.50;1.00;;;;;;;;5132829;27;8797;-74
2023/09/19 02:50:23;;;;;;;;;3.00;1.75;;;;;;;;5141119;27;9971;-74
2023/09/19 02:52:48;;;;;;;;;3.00;1.00;;;;;;;;5143144;27;10069;-74
2023/09/19 02:55:17;;;;;;;;;1.00;1.00;;;;;;;;5138679;27;8827;-74
2023/09/19 02:57:50;;;;;;;;;0.50;0.00;;;;;;;;5119575;28;8775;-73
2023/09/19 03:00:17;;;;;;;;;2.00;0.50;;;;;;;;5121482;28;9908;-74
2023/09/19 03:02:42;;;;;;;;;1.75;1.00;;;;;;;;5131486;27;9961;-74
2023/09/19 03:05:08;;;;;;;;;2.75;0.75;;;;;;;;5141842;27;9825;-74
2023/09/19 03:07:34;;;;;;;;;0.00;0.00;;;;;;;;5126695;27;8768;-74
2023/09/19 03:09:59;;;;;;;;;0.00;0.00;;;;;;;;5122413;27;8818;-75
2023/09/19 03:12:25;;;;;;;;;1.25;0.50;;;;;;;;5122768;27;8791;-74
2023/09/19 03:14:50;;;;;;;;;1.75;0.25;;;;;;;;5122637;27;8808;-74
2023/09/19 03:17:15;;;;;;;;;2.00;0.50;;;;;;;;5123124;28;8795;-74
2023/09/19 03:19:41;;;;;;;;;1.75;1.00;;;;;;;;5122100;27;8834;-74
2023/09/19 03:22:07;;;;;;;;;0.50;0.50;;;;;;;;5141459;27;8808;-74
2023/09/19 03:24:33;;;;;;;;;0.00;0.00;;;;;;;;5136051;27;8758;-73
2023/09/19 03:26:58;;;;;;;;;2.00;1.00;;;;;;;;5124489;27;11045;-74
2023/09/19 03:29:25;;;;;;;;;0.00;0.00;;;;;;;;5143394;27;9951;-74
2023/09/19 03:31:50;;;;;;;;;2.00;1.00;;;;;;;;5143026;27;8744;-74
2023/09/19 03:34:16;;;;;;;;;0.25;0.25;;;;;;;;5131112;27;10781;-74
2023/09/19 03:36:41;;;;;;;;;1.00;0.50;;;;;;;;5121223;28;8787;-74
2023/09/19 03:39:06;;;;;;;;;4.00;1.00;;;;;;;;5122212;27;8825;-74
2023/09/19 03:41:32;;;;;;;;;2.00;1.00;;;;;;;;5144731;27;8872;-74
2023/09/19 03:43:58;;;;;;;;;1.25;0.75;;;;;;;;5146526;27;8772;-74
2023/09/19 03:46:24;;;;;;;;;0.75;0.75;;;;;;;;5146078;27;10066;-74
2023/09/19 03:48:50;;;;;;;;;2.00;1.00;;;;;;;;5131252;27;8764;-74
2023/09/19 03:51:15;;;;;;;;;2.00;0.50;;;;;;;;5123786;27;9969;-74
2023/09/19 03:53:40;;;;;;;;;0.50;0.50;;;;;;;;5125903;28;8819;-74
2023/09/19 03:56:05;;;;;;;;;3.75;1.00;;;;;;;;5128018;27;8828;-74
2023/09/19 03:58:31;;;;;;;;;1.00;1.00;;;;;;;;5142927;27;8831;-74
2023/09/19 04:00:56;;;;;;;;;0.00;0.00;;;;;;;;5116794;27;8900;-74
2023/09/19 04:03:22;;;;;;;;;1.00;0.25;;;;;;;;5141475;27;8799;-74
2023/09/19 04:05:47;;;;;;;;;0.00;0.00;;;;;;;;5145409;27;8785;-74
2023/09/19 04:08:13;;;;;;;;;1.50;0.00;;;;;;;;5146086;27;8805;-74
2023/09/19 04:10:39;;;;;;;;;0.25;0.00;;;;;;;;5144391;27;8808;-74
2023/09/19 04:13:04;;;;;;;;;3.25;0.25;;;;;;;;5145327;27;8801;-74
2023/09/19 04:15:29;;;;;;;;;1.50;0.00;;;;;;;;5146049;27;8788;-74
2023/09/19 04:17:55;;;;;;;;;4.00;1.00;;;;;;;;5137034;27;8822;-74
2023/09/19 04:20:22;;;;;;;;;0.00;0.00;;;;;;;;5130596;27;8816;-74
2023/09/19 04:22:47;;;;;;;;;0.00;0.00;;;;;;;;5127117;27;9203;-74
2023/09/19 04:25:12;;;;;;;;;1.75;0.50;;;;;;;;5114011;27;9975;-74
2023/09/19 04:27:38;;;;;;;;;1.75;0.00;;;;;;;;5145694;27;8773;-74
2023/09/19 04:30:05;;;;;;;;;1.25;0.00;;;;;;;;5133053;27;8809;-74
2023/09/19 04:32:32;;;;;;;;;0.00;0.00;;;;;;;;5122626;28;8810;-74
2023/09/19 04:34:59;;;;;;;;;0.75;0.00;;;;;;;;5125199;27;10003;-74
2023/09/19 04:37:25;;;;;;;;;2.00;0.25;;;;;;;;5128912;27;10193;-74
2023/09/19 04:39:50;;;;;;;;;0.75;0.75;;;;;;;;5143310;27;9721;-74
2023/09/19 04:42:15;;;;;;;;;1.00;0.00;;;;;;;;5135305;27;8789;-74
2023/09/19 04:44:41;;;;;;;;;0.50;0.50;;;;;;;;5144202;27;8773;-74
2023/09/19 04:47:07;;;;;;;;;1.50;0.75;;;;;;;;5124434;28;8777;-74
2023/09/19 04:49:32;;;;;;;;;2.50;1.00;;;;;;;;5131004;27;9958;-74
2023/09/19 04:51:57;;;;;;;;;0.25;0.25;;;;;;;;5143979;27;8799;-74
2023/09/19 04:54:23;;;;;;;;;0.50;0.50;;;;;;;;5137553;27;8785;-73
2023/09/19 04:56:48;;;;;;;;;1.50;0.75;;;;;;;;5124485;27;8807;-74
2023/09/19 04:59:14;;;;;;;;;3.00;0.75;;;;;;;;5138118;27;8823;-74
2023/09/19 05:01:40;;;;;;;;;2.50;1.00;;;;;;;;5144974;27;8742;-74
2023/09/19 05:04:05;;;;;;;;;0.25;0.00;;;;;;;;5145239;27;9957;-74
2023/09/19 05:06:30;;;;;;;;;1.00;1.00;;;;;;;;5134432;27;8803;-74
2023/09/19 05:08:56;;;;;;;;;0.50;0.00;;;;;;;;5125104;27;9558;-74
2023/09/19 05:11:22;;;;;;;;;0.75;0.00;;;;;;;;5124610;28;8772;-74
2023/09/19 05:13:49;;;;;;;;;1.00;1.00;;;;;;;;5122907;27;8996;-73
2023/09/19 05:16:16;;;;;;;;;1.00;1.00;;;;;;;;5123690;27;10477;-74
2023/09/19 05:18:42;;;;;;;;;1.50;0.50;;;;;;;;5126844;27;10117;-78
2023/09/19 05:21:07;;;;;;;;;3.00;1.00;;;;;;;;5125386;27;10222;-79
2023/09/19 05:23:33;;;;;;;;;3.00;1.00;;;;;;;;5126808;27;11428;-75
2023/09/19 05:26:03;;;;;;;;;1.00;1.00;;;;;;;;5124051;27;8803;-77
2023/09/19 05:28:34;;;;;;;;;2.00;0.00;;;;;;;;5121765;27;8747;-79
2023/09/19 05:31:04;;;;;;;;;0.25;0.25;;;;;;;;5123207;27;9939;-78
2023/09/19 05:33:31;;;;;;;;;2.00;1.00;;;;;;;;5124118;27;10985;-76
2023/09/19 05:35:56;;;;;;;;;1.25;1.00;;;;;;;;5124581;27;10306;-74
2023/09/19 05:38:22;;;;;;;;;1.25;1.00;;;;;;;;5144375;27;10094;-75
2023/09/19 05:40:47;;;;;;;;;2.75;1.00;;;;;;;;5128882;27;8800;-77
2023/09/19 05:43:14;;;;;;;;;0.00;0.00;;;;;;;;5131973;27;8812;-77
2023/09/19 05:45:40;;;;;;;;;5.00;0.00;;;;;;;;5126287;27;8794;-75
2023/09/19 05:48:09;;;;;;;;;1.00;1.00;;;;;;;;5127308;27;9947;-81
2023/09/19 05:50:34;;;;;;;;;1.75;1.00;;;;;;;;5123727;27;9961;-78
2023/09/19 05:53:00;;;;;;;;;1.25;0.25;;;;;;;;5126044;27;10078;-75
2023/09/19 05:55:25;;;;;;;;;1.00;1.00;;;;;;;;5121940;27;8775;-76
2023/09/19 05:57:51;;;;;;;;;1.00;1.00;;;;;;;;5130605;27;8885;-75
2023/09/19 06:00:18;;;;;;;;;4.75;1.00;;;;;;;;5133175;27;8800;-75
2023/09/19 06:02:44;;;;;;;;;2.25;1.00;;;;;;;;5137645;27;8745;-77
2023/09/19 06:05:17;;;;;;;;;3.00;2.00;;;;;;;;5124507;27;10116;-72
2023/09/19 06:07:42;;;;;;;;;2.00;2.00;;;;;;;;5139901;27;10099;-75
2023/09/19 06:10:11;;;;;;;;;2.25;0.00;;;;;;;;5129369;27;10087;-75
2023/09/19 06:12:39;;;;;;;;;1.00;1.00;;;;;;;;5132608;27;8775;-81
2023/09/19 06:15:06;;;;;;;;;2.00;0.00;;;;;;;;5141794;27;10139;-74
2023/09/19 06:17:31;;;;;;;;;0.50;0.25;;;;;;;;5138012;27;9955;-78
2023/09/19 06:19:56;;;;;;;;;2.25;1.50;;;;;;;;5131378;27;10101;-74
2023/09/19 06:22:22;;;;;;;;;3.50;0.25;;;;;;;;5137512;27;8800;-76
2023/09/19 06:24:48;;;;;;;;;1.25;0.50;;;;;;;;5124847;27;9939;-76
2023/09/19 06:27:13;;;;;;;;;1.00;1.00;;;;;;;;5133674;27;8773;-74
2023/09/19 06:29:38;;;;;;;;;0.50;0.00;;;;;;;;5140290;27;8788;-76
2023/09/19 06:32:07;;;;;;;;;1.00;0.00;;;;;;;;5140364;27;8792;-75
2023/09/19 06:34:33;;;;;;;;;2.50;0.50;;;;;;;;5128301;27;8769;-74
2023/09/19 06:36:58;;;;;;;;;1.25;1.00;;;;;;;;5128424;27;10203;-75
2023/09/19 06:39:25;;;;;;;;;2.00;1.00;;;;;;;;5127404;27;8753;-75
2023/09/19 06:41:53;;;;;;;;;1.50;1.00;;;;;;;;5125428;27;8840;-75
2023/09/19 06:44:20;;;;;;;;;2.75;1.00;;;;;;;;5119529;28;10960;-75
2023/09/19 06:46:49;;;;;;;;;1.50;0.00;;;;;;;;5126676;27;9880;-75
2023/09/19 06:49:16;;;;;;;;;0.25;0.25;;;;;;;;5121940;27;9630;-74
2023/09/19 06:51:41;;;;;;;;;0.00;0.00;;;;;;;;5122081;27;10155;-74
2023/09/19 06:54:07;;;;;;;;;2.00;0.00;;;;;;;;5122079;27;10192;-74
2023/09/19 06:56:32;;;;;;;;;0.00;0.00;;;;;;;;5123141;27;8834;-74
2023/09/19 06:58:58;;;;;;;;;2.00;1.00;;;;;;;;5122095;27;8782;-74
2023/09/19 07:01:23;;;;;;;;;2.00;1.00;;;;;;;;5109584;27;8805;-74
2023/09/19 07:03:48;;;;;;;;;3.75;1.00;;;;;;;;5104024;28;8872;-74
2023/09/19 07:06:13;;;;;;;;;0.75;0.75;;;;;;;;5125690;27;8812;-74
2023/09/19 07:08:39;;;;;;;;;1.25;1.25;;;;;;;;5135690;27;8800;-74
2023/09/19 07:11:06;;;;;;;;;3.25;1.50;;;;;;;;5123902;27;8785;-74
2023/09/19 07:13:32;;;;;;;;;1.00;1.00;;;;;;;;5119159;27;10986;-74
2023/09/19 07:16:01;;;;;;;;;2.00;1.00;;;;;;;;5125034;27;9860;-74
2023/09/19 07:18:26;;;;;;;;;1.00;0.25;;;;;;;;5131298;27;9566;-74
2023/09/19 07:20:58;;;;;;;;;0.00;0.00;;;;;;;;5146123;27;9668;-74
2023/09/19 07:23:25;;;;;;;;;4.50;1.25;;;;;;;;5103775;28;10311;-74
2023/09/19 07:25:51;;;;;;;;;1.00;0.00;;;;;;;;5116757;27;9583;-75
2023/09/19 07:28:17;;;;;;;;;2.00;1.00;;;;;;;;5135434;27;9612;-74
2023/09/19 07:30:42;;;;;;;;;4.50;1.25;;;;;;;;5123848;27;8795;-74
2023/09/19 07:33:11;;;;;;;;;0.00;0.00;;;;;;;;5123319;28;8783;-74
2023/09/19 07:35:36;;;;;;;;;1.50;1.50;;;;;;;;5126177;27;8753;-74
2023/09/19 07:38:01;;;;;;;;;1.00;0.00;;;;;;;;5144855;27;9534;-74
2023/09/19 07:40:28;;;;;;;;;3.00;1.00;;;;;;;;5145530;27;8793;-74
2023/09/19 07:42:54;;;;;;;;;1.25;0.75;;;;;;;;5128230;27;10223;-74
2023/09/19 07:45:19;;;;;;;;;2.25;0.00;;;;;;;;5125482;27;9481;-74
2023/09/19 07:47:45;;;;;;;;;1.50;1.00;;;;;;;;5131861;27;11513;-74
2023/09/19 07:50:11;;;;;;;;;1.25;1.25;;;;;;;;5144731;27;8788;-74
2023/09/19 07:52:36;;;;;;;;;4.25;1.00;;;;;;;;5128955;27;10041;-74
2023/09/19 07:55:08;;;;;;;;;1.00;1.00;;;;;;;;5123123;28;8803;-74
2023/09/19 07:57:34;;;;;;;;;0.50;0.50;;;;;;;;5130565;27;8760;-74
2023/09/19 07:59:59;;;;;;;;;1.00;1.00;;;;;;;;5124179;28;9625;-74
2023/09/19 08:02:25;;;;;;;;;0.75;0.75;;;;;;;;5125734;28;8791;-74
2023/09/19 08:04:51;;;;;;;;;0.00;0.00;;;;;;;;5125830;28;8897;-74
2023/09/19 08:07:17;;;;;;;;;3.50;2.00;;;;;;;;5124001;28;8793;-74
2023/09/19 08:09:46;;;;;;;;;1.50;0.00;;;;;;;;5124465;28;9615;-74
2023/09/19 08:12:11;;;;;;;;;1.67;1.00;;;;;;;;5125816;28;9786;-74
2023/09/19 08:14:37;;;;;;;;;1.00;0.00;;;;;;;;5123905;28;9408;-74
2023/09/19 08:17:05;;;;;;;;;1.00;1.00;;;;;;;;5124618;27;8876;-74
2023/09/19 08:19:31;;;;;;;;;2.00;1.00;;;;;;;;5123960;28;9619;-74
2023/09/19 08:22:00;;;;;;;;;1.25;0.00;;;;;;;;5144664;27;9732;-74
2023/09/19 08:24:29;;;;;;;;;0.25;0.00;;;;;;;;5144281;27;9589;-74
2023/09/19 08:26:54;;;;;;;;;0.75;0.00;;;;;;;;5144157;27;9592;-74
2023/09/19 08:29:20;;;;;;;;;1.00;1.00;;;;;;;;5145580;27;9624;-75
2023/09/19 08:31:47;;;;;;;;;5.50;1.00;;;;;;;;5145457;27;8838;-74
2023/09/19 08:34:12;;;;;;;;;0.00;0.00;;;;;;;;5145625;27;8917;-74
2023/09/19 08:36:38;;;;;;;;;4.00;0.50;;;;;;;;5143387;27;9875;-74
2023/09/19 08:39:03;;;;;;;;;1.00;1.00;;;;;;;;5143782;27;8804;-74
2023/09/19 08:41:28;;;;;;;;;1.67;1.67;;;;;;;;5145266;27;11164;-75
2023/09/19 08:43:54;;;;;;;;;3.25;0.25;;;;;;;;5144034;27;8822;-74
2023/09/19 08:46:20;;;;;;;;;0.75;0.25;;;;;;;;5145491;27;8879;-74
2023/09/19 08:48:48;;;;;;;;;2.33;0.33;;;;;;;;5145322;27;8799;-74
2023/09/19 08:51:18;;;;;;;;;3.50;1.00;;;;;;;;5142145;27;8856;-74
2023/09/19 08:54:03;;;;;;;;;3.00;0.50;;;;;;;;5124436;27;9669;-74
2023/09/19 08:56:29;;;;;;;;;2.00;2.00;;;;;;;;5117744;27;9479;-74
2023/09/19 08:58:59;;;;;;;;;0.25;0.25;;;;;;;;5124354;27;10292;-74
2023/09/19 09:01:28;;;;;;;;;2.50;1.00;;;;;;;;5124342;28;8752;-74
2023/09/19 09:03:54;;;;;;;;;2.00;1.00;;;;;;;;5124442;27;9546;-74
2023/09/19 09:06:20;;;;;;;;;0.75;0.75;;;;;;;;5124042;27;9289;-73
2023/09/19 09:08:45;;;;;;;;;2.00;0.75;;;;;;;;5124706;27;9482;-74
2023/09/19 09:11:11;;;;;;;;;0.25;0.25;;;;;;;;5124094;27;8802;-74
2023/09/19 09:13:37;;;;;;;;;0.25;0.25;;;;;;;;5124546;27;8803;-74
2023/09/19 09:16:02;;;;;;;;;1.00;1.00;;;;;;;;5124158;27;8859;-73
2023/09/19 09:18:29;;;;;;;;;1.50;0.00;;;;;;;;5124521;27;11404;-75
2023/09/19 09:20:55;;;;;;;;;3.00;0.00;;;;;;;;5123481;27;8816;-74
2023/09/19 09:23:21;;;;;;;;;2.00;1.00;;;;;;;;5124284;27;9466;-74
2023/09/19 09:25:47;;;;;;;;;1.00;1.00;;;;;;;;5123089;28;9628;-74
2023/09/19 09:28:19;;;;;;;;;4.25;1.00;;;;;;;;5124188;27;9799;-74
2023/09/19 09:30:44;;;;;;;;;1.00;1.00;;;;;;;;5122970;28;10045;-74
2023/09/19 09:33:11;;;;;;;;;2.25;1.00;;;;;;;;5123745;28;9613;-74
2023/09/19 09:35:41;;;;;;;;;1.00;1.00;;;;;;;;5123634;27;9687;-74
2023/09/19 09:38:09;;;;;;;;;2.00;1.00;;;;;;;;5123033;27;8716;-74
2023/09/19 09:40:52;;;;;;;;;1.67;1.00;;;;;;;;5123828;27;9700;-75
2023/09/19 09:43:28;;;;;;;;;0.75;0.00;;;;;;;;5122248;28;10383;-74
2023/09/19 09:52:05;;;;;;;;;0.50;0.00;;;;;;;;5100376;28;9583;-74
2023/09/19 09:54:36;;;;;;;;;2.00;0.00;;;;;;;;5080183;28;9486;-74
2023/09/19 09:57:23;;;;;;;;;0.00;0.00;;;;;;;;5082350;28;9747;-74
2023/09/19 09:59:57;;;;;;;;;0.67;0.00;;;;;;;;5080589;28;9317;-74
2023/09/19 10:02:29;;;;;;;;;0.00;0.00;;;;;;;;5079974;28;9568;-73
2023/09/19 10:05:13;;;;;;;;;0.67;0.00;;;;;;;;5062977;28;9485;-74
2023/09/19 10:07:41;;;;;;;;;0.33;0.33;;;;;;;;5080272;28;9119;-73
2023/09/19 10:10:16;;;;;;;;;1.00;0.00;;;;;;;;5082885;28;9359;-74
2023/09/19 10:12:42;;;;;;;;;0.67;0.67;;;;;;;;5083492;28;10169;-74
2023/09/19 10:15:10;;;;;;;;;0.00;0.00;;;;;;;;5100761;28;9426;-75
2023/09/19 10:17:36;;;;;;;;;2.00;0.00;;;;;;;;5100366;28;9321;-74
2023/09/19 10:20:09;;;;;;;;;1.00;0.00;;;;;;;;5077004;28;9407;-75
2023/09/19 10:22:35;;;;;;;;;1.00;0.00;;;;;;;;5080142;28;8779;-74
2023/09/19 10:25:00;;;;;;;;;0.00;0.00;;;;;;;;5081849;28;9273;-74
2023/09/19 10:27:26;;;;;;;;;0.33;0.00;;;;;;;;5121670;27;9423;-75
2023/09/19 10:29:55;;;;;;;;;2.00;1.00;;;;;;;;5124595;27;8803;-74
2023/09/19 10:32:23;;;;;;;;;2.00;1.00;;;;;;;;5143977;27;8725;-74
2023/09/19 10:34:48;;;;;;;;;2.00;1.00;;;;;;;;5143606;27;9258;-74
2023/09/19 10:37:15;;;;;;;;;3.67;0.00;;;;;;;;5144114;27;9192;-74
2023/09/19 10:39:41;;;;;;;;;0.00;0.00;;;;;;;;5143509;27;9009;-75
2023/09/19 10:42:08;;;;;;;;;0.67;0.67;;;;;;;;5142557;27;10048;-74
2023/09/19 10:44:38;;;;;;;;;2.00;0.00;;;;;;;;5143929;27;8872;-74
2023/09/19 10:47:07;;;;;;;;;0.00;0.00;;;;;;;;5143689;27;8940;-74
2023/09/19 10:49:32;;;;;;;;;0.33;0.00;;;;;;;;5144933;27;9920;-74
2023/09/19 10:52:00;;;;;;;;;0.33;0.33;;;;;;;;5147534;27;9414;-74
2023/09/19 10:54:28;;;;;;;;;1.33;0.00;;;;;;;;5144959;27;8717;-74
2023/09/19 10:56:53;;;;;;;;;0.00;0.00;;;;;;;;5138717;27;9239;-74
2023/09/19 10:59:20;;;;;;;;;2.67;0.00;;;;;;;;5125514;28;9054;-75
2023/09/19 11:01:53;;;;;;;;;0.00;0.00;;;;;;;;5126355;27;8807;-74
2023/09/19 11:04:29;;;;;;;;;3.33;1.33;;;;;;;;5126364;27;8979;-74
2023/09/19 11:07:03;;;;;;;;;0.00;0.00;;;;;;;;5145882;27;9123;-75
2023/09/19 11:09:47;;;;;;;;;0.67;0.67;;;;;;;;5147280;27;9101;-75
2023/09/19 11:14:58;;;;;;;;;1.00;0.00;;;;;;;;5146341;27;8991;-74
2023/09/19 11:17:31;;;;;;;;;1.33;0.00;;;;;;;;5145513;27;8904;-74
2023/09/19 11:22:53;;;;;;;;;0.00;0.00;;;;;;;;5146744;27;9083;-74
2023/09/19 11:25:30;;;;;;;;;1.00;1.00;;;;;;;;5145445;27;8877;-75
2023/09/19 11:28:05;;;;;;;;;0.67;0.67;;;;;;;;5144820;27;8956;-74
2023/09/19 11:30:32;;;;;;;;;0.00;0.00;;;;;;;;5146923;27;8916;-75
2023/09/19 11:33:23;;;;;;;;;0.00;0.00;;;;;;;;5146122;27;9052;-74
2023/09/19 11:36:02;;;;;;;;;1.00;0.50;;;;;;;;5146607;27;8835;-75
2023/09/19 11:39:01;;;;;;;;;0.00;0.00;;;;;;;;5145121;27;8793;-75
2023/09/19 11:41:39;;;;;;;;;0.00;0.00;;;;;;;;5105607;28;8831;-75
2023/09/19 11:44:05;;;;;;;;;2.00;1.00;;;;;;;;5108096;28;9031;-75
2023/09/19 11:46:31;;;;;;;;;0.00;0.00;;;;;;;;5085405;28;8796;-75
2023/09/19 11:49:08;;;;;;;;;0.67;0.67;;;;;;;;5085846;28;8776;-75
2023/09/19 11:51:39;;;;;;;;;1.00;0.00;;;;;;;;5103108;28;8792;-74
2023/09/19 11:54:13;;;;;;;;;1.25;1.00;;;;;;;;5085675;28;10310;-75
2023/09/19 11:56:40;;;;;;;;;0.75;0.75;;;;;;;;5101388;28;9054;-75
2023/09/19 11:59:06;;;;;;;;;2.00;1.00;;;;;;;;5084754;28;8766;-74
2023/09/19 12:01:33;;;;;;;;;1.00;0.00;;;;;;;;5120609;28;8924;-75
2023/09/19 12:03:59;;;;;;;;;2.67;1.00;;;;;;;;5105595;28;10167;-74
2023/09/19 12:06:25;;;;;;;;;0.00;0.00;;;;;;;;5122926;28;8909;-75
2023/09/19 12:08:53;;;;;;;;;1.25;0.00;;;;;;;;5109093;28;8852;-75
2023/09/19 12:11:20;;;;;;;;;0.00;0.00;;;;;;;;5085377;28;9740;-75
2023/09/19 12:13:46;;;;;;;;;1.00;0.00;;;;;;;;5085800;28;8946;-75
2023/09/19 12:16:15;;;;;;;;;0.67;0.67;;;;;;;;5102005;28;8942;-75
2023/09/19 12:18:43;;;;;;;;;0.00;0.00;;;;;;;;5142819;27;8761;-75
2023/09/19 12:21:22;;;;;;;;;0.00;0.00;;;;;;;;5130225;27;8948;-74
2023/09/19 12:24:13;;;;;;;;;1.67;1.00;;;;;;;;5144655;27;8967;-75
2023/09/19 12:26:47;;;;;;;;;0.75;0.75;;;;;;;;5137489;27;9273;-75
2023/09/19 12:29:17;;;;;;;;;1.00;1.00;;;;;;;;5145837;27;9687;-75
2023/09/19 12:31:55;;;;;;;;;0.75;0.00;;;;;;;;5146155;27;8725;-74
2023/09/19 12:34:34;;;;;;;;;1.00;0.50;;;;;;;;5144141;27;10301;-74
2023/09/19 12:37:11;;;;;;;;;0.75;0.75;;;;;;;;5143869;27;8752;-75
2023/09/19 12:39:37;;;;;;;;;1.50;1.00;;;;;;;;5144362;27;8776;-75
2023/09/19 12:42:04;;;;;;;;;1.67;0.00;;;;;;;;5145704;27;8753;-76
2023/09/19 12:44:29;;;;;;;;;0.00;0.00;;;;;;;;5145300;27;11367;-75
2023/09/19 12:46:54;;;;;;;;;2.00;0.33;;;;;;;;5145567;27;8887;-75
2023/09/19 12:49:20;;;;;;;;;1.00;0.33;;;;;;;;5145306;27;8799;-75
2023/09/19 12:51:47;;;;;;;;;0.67;0.67;;;;;;;;5144494;27;8838;-75
2023/09/19 12:54:14;;;;;;;;;0.00;0.00;;;;;;;;5145701;27;8728;-75
2023/09/19 12:56:44;;;;;;;;;0.25;0.25;;;;;;;;5136613;27;8790;-75
2023/09/19 12:59:13;;;;;;;;;0.67;0.67;;;;;;;;5124482;28;8806;-75
2023/09/19 13:01:43;;;;;;;;;2.00;0.00;;;;;;;;5123290;28;8857;-75
2023/09/19 13:04:18;;;;;;;;;0.75;0.75;;;;;;;;5123540;28;10007;-75
2023/09/19 13:06:44;;;;;;;;;0.00;0.00;;;;;;;;5124614;27;8775;-75
2023/09/19 13:09:10;;;;;;;;;0.67;0.00;;;;;;;;5124955;27;8885;-75
2023/09/19 13:11:38;;;;;;;;;0.33;0.33;;;;;;;;5122923;28;8789;-75
2023/09/19 13:14:19;;;;;;;;;0.25;0.25;;;;;;;;5114145;28;11558;-75
2023/09/19 13:16:57;;;;;;;;;2.75;1.00;;;;;;;;5104213;28;8823;-75
2023/09/19 13:19:35;;;;;;;;;1.75;0.75;;;;;;;;5102466;28;8764;-75
2023/09/19 13:22:01;;;;;;;;;0.67;0.00;;;;;;;;5112204;27;8838;-75
2023/09/19 13:24:27;;;;;;;;;0.00;0.00;;;;;;;;5121996;28;10151;-75
2023/09/19 13:26:52;;;;;;;;;0.25;0.25;;;;;;;;5124097;27;8779;-75
2023/09/19 13:29:18;;;;;;;;;1.33;1.00;;;;;;;;5103509;28;8836;-75
2023/09/19 13:31:52;;;;;;;;;1.33;0.67;;;;;;;;5109063;28;8822;-75
2023/09/19 13:34:19;;;;;;;;;0.00;0.00;;;;;;;;5124418;27;8751;-75
2023/09/19 13:36:44;;;;;;;;;0.75;0.75;;;;;;;;5123944;27;8759;-75
2023/09/19 13:39:10;;;;;;;;;0.67;0.00;;;;;;;;5124212;27;8901;-75
2023/09/19 13:41:38;;;;;;;;;1.67;0.00;;;;;;;;5123765;27;8842;-75
2023/09/19 13:44:04;;;;;;;;;2.00;1.00;;;;;;;;5123901;27;8775;-75
2023/09/19 13:46:31;;;;;;;;;0.67;0.67;;;;;;;;5131442;27;8776;-75
2023/09/19 13:48:59;;;;;;;;;1.25;0.75;;;;;;;;5134661;27;11415;-75
2023/09/19 13:51:25;;;;;;;;;1.25;0.25;;;;;;;;5129499;27;8792;-75
2023/09/19 13:53:50;;;;;;;;;2.00;1.00;;;;;;;;5144348;27;8789;-75
2023/09/19 13:56:16;;;;;;;;;0.00;0.00;;;;;;;;5129155;27;8780;-76
2023/09/19 13:58:41;;;;;;;;;1.33;0.00;;;;;;;;5123668;28;8872;-74
2023/09/19 14:01:12;;;;;;;;;0.00;0.00;;;;;;;;5136738;27;8848;-75
2023/09/19 14:03:37;;;;;;;;;0.25;0.25;;;;;;;;5144498;27;8819;-75
2023/09/19 14:06:02;;;;;;;;;1.00;0.00;;;;;;;;5143908;27;8797;-75
2023/09/19 14:08:27;;;;;;;;;0.00;0.00;;;;;;;;5144465;27;8801;-75
2023/09/19 14:10:53;;;;;;;;;0.00;0.00;;;;;;;;5142814;27;8797;-75
2023/09/19 14:13:20;;;;;;;;;1.00;0.00;;;;;;;;5137958;27;10064;-75
2023/09/19 14:15:45;;;;;;;;;1.00;1.00;;;;;;;;5124613;27;8856;-75
2023/09/19 14:18:10;;;;;;;;;1.67;0.00;;;;;;;;5129363;27;8902;-75
2023/09/19 14:20:37;;;;;;;;;1.00;1.00;;;;;;;;5134406;27;8847;-75
2023/09/19 14:23:03;;;;;;;;;1.00;1.00;;;;;;;;5143291;27;8768;-75
2023/09/19 14:25:30;;;;;;;;;1.33;1.00;;;;;;;;5133370;27;8836;-74
2023/09/19 14:27:55;;;;;;;;;0.75;0.75;;;;;;;;5125980;27;8733;-76
2023/09/19 14:30:21;;;;;;;;;1.00;0.67;;;;;;;;5132945;27;8789;-75
2023/09/19 14:32:46;;;;;;;;;0.00;0.00;;;;;;;;5133569;27;8825;-75
2023/09/19 14:35:13;;;;;;;;;1.00;1.00;;;;;;;;5133481;27;11454;-75
2023/09/19 14:37:39;;;;;;;;;0.00;0.00;;;;;;;;5129211;27;8791;-75
2023/09/19 14:40:08;;;;;;;;;0.00;0.00;;;;;;;;5132130;27;8748;-75
2023/09/19 14:42:36;;;;;;;;;1.00;0.25;;;;;;;;5134027;27;8864;-75
2023/09/19 14:45:02;;;;;;;;;0.75;0.75;;;;;;;;5132327;27;8829;-75
2023/09/19 14:47:28;;;;;;;;;0.67;0.67;;;;;;;;5132619;27;9571;-75
2023/09/19 14:49:53;;;;;;;;;1.67;1.00;;;;;;;;5124534;27;9753;-75
2023/09/19 14:52:19;;;;;;;;;1.00;1.00;;;;;;;;5122018;27;11472;-75
2023/09/19 14:54:44;;;;;;;;;0.00;0.00;;;;;;;;5119867;28;8795;-75
2023/09/19 14:57:10;;;;;;;;;1.00;1.00;;;;;;;;5123797;27;8832;-75
2023/09/19 14:59:38;;;;;;;;;0.67;0.67;;;;;;;;5136073;27;8893;-75
2023/09/19 15:02:04;;;;;;;;;2.25;0.75;;;;;;;;5133609;27;8786;-75
2023/09/19 15:04:29;;;;;;;;;1.33;0.33;;;;;;;;5130288;27;8795;-75
2023/09/19 15:06:54;;;;;;;;;0.00;0.00;;;;;;;;5130803;27;8803;-75
2023/09/19 15:09:21;;;;;;;;;0.67;0.00;;;;;;;;5115551;27;8853;-75
2023/09/19 15:11:47;;;;;;;;;1.50;0.75;;;;;;;;5137758;27;10155;-75